Time;durP1;ratioP1;P1;durP2;ratioP2;P2;SDS_P1;SDS_P2;PMS_P1;PMS_P2;Temp;Humidity;BMP_temperature;BMP_pressure;BME280_temperature;BME280_humidity;BME280_pressure;Samples;Min_cycle;Max_cycle;Signal;HPM_P1;HPM_P2
2023/05/17 00:01:30;;;;;;;5.50;3.15;;;;;;;;;;5037030;28;20040;-58
2023/05/17 00:03:56;;;;;;;3.20;2.25;;;;;;;;;;5039681;28;20419;-58
2023/05/17 00:06:23;;;;;;;4.40;2.30;;;;;;;;;;5029233;28;20041;-58
2023/05/17 00:08:49;;;;;;;4.78;2.40;;;;;;;;;;5038700;28;20471;-58
2023/05/17 00:11:15;;;;;;;3.72;2.38;;;;;;;;;;5046326;28;20033;-58
2023/05/17 00:13:41;;;;;;;3.80;2.25;;;;;;;;;;5040909;28;20041;-58
2023/05/17 00:16:07;;;;;;;3.72;2.28;;;;;;;;;;5038486;28;20060;-58
2023/05/17 00:18:33;;;;;;;3.55;2.33;;;;;;;;;;5036006;28;20492;-58
2023/05/17 00:20:59;;;;;;;4.68;2.33;;;;;;;;;;5035420;28;20045;-58
2023/05/17 00:23:28;;;;;;;6.65;2.65;;;;;;;;;;5040778;28;20037;-58
2023/05/17 00:25:54;;;;;;;4.75;2.00;;;;;;;;;;5034922;28;20034;-58
2023/05/17 00:28:20;;;;;;;3.55;2.03;;;;;;;;;;5034713;28;20048;-58
2023/05/17 00:30:46;;;;;;;4.30;2.15;;;;;;;;;;5036527;28;20491;-58
2023/05/17 00:33:13;;;;;;;4.25;2.08;;;;;;;;;;5040384;28;20415;-58
2023/05/17 00:35:39;;;;;;;5.45;2.25;;;;;;;;;;5037517;28;20037;-58
2023/05/17 00:38:05;;;;;;;5.28;2.15;;;;;;;;;;5035778;28;20035;-58
2023/05/17 00:40:31;;;;;;;5.82;2.20;;;;;;;;;;5041757;28;20053;-58
2023/05/17 00:42:57;;;;;;;3.38;1.90;;;;;;;;;;5040787;28;20041;-58
2023/05/17 00:45:23;;;;;;;5.20;2.25;;;;;;;;;;5041477;28;20048;-58
2023/05/17 00:47:49;;;;;;;5.88;2.30;;;;;;;;;;5041821;28;20036;-58
2023/05/17 00:50:16;;;;;;;6.93;2.33;;;;;;;;;;5042497;28;20039;-58
2023/05/17 00:52:42;;;;;;;5.20;1.90;;;;;;;;;;5032977;28;20033;-58
2023/05/17 00:55:08;;;;;;;3.25;2.08;;;;;;;;;;5040820;28;20050;-58
2023/05/17 00:57:35;;;;;;;4.18;2.10;;;;;;;;;;5024049;28;20072;-58
2023/05/17 01:00:02;;;;;;;3.83;2.17;;;;;;;;;;5038219;28;20052;-58
2023/05/17 01:02:30;;;;;;;3.38;2.55;;;;;;;;;;5034662;28;20053;-58
2023/05/17 01:04:56;;;;;;;3.35;2.22;;;;;;;;;;5038632;28;20495;-58
2023/05/17 01:07:23;;;;;;;7.15;2.33;;;;;;;;;;5037035;28;20064;-58
2023/05/17 01:09:49;;;;;;;6.10;2.72;;;;;;;;;;5034804;28;20029;-57
2023/05/17 01:12:33;;;;;;;5.38;2.17;;;;;;;;;;5042652;28;20049;-57
2023/05/17 01:15:11;;;;;;;6.20;2.10;;;;;;;;;;5046907;28;20041;-57
2023/05/17 01:17:53;;;;;;;4.43;2.85;;;;;;;;;;5042603;28;20052;-57
2023/05/17 01:20:27;;;;;;;5.60;2.53;;;;;;;;;;5038865;28;20037;-58
2023/05/17 01:23:02;;;;;;;5.75;2.08;;;;;;;;;;5037003;28;20033;-58
2023/05/17 01:25:41;;;;;;;5.93;2.70;;;;;;;;;;5032081;28;20038;-58
2023/05/17 01:28:09;;;;;;;5.30;2.15;;;;;;;;;;5037292;28;20064;-58
2023/05/17 01:30:37;;;;;;;7.80;2.67;;;;;;;;;;5034824;28;20038;-58
2023/05/17 01:33:04;;;;;;;3.60;2.10;;;;;;;;;;5032586;28;20518;-57
2023/05/17 01:35:30;;;;;;;4.38;2.42;;;;;;;;;;5043904;28;20029;-57
2023/05/17 01:38:03;;;;;;;3.70;2.20;;;;;;;;;;5035537;28;20043;-58
2023/05/17 01:40:34;;;;;;;4.75;1.92;;;;;;;;;;5030961;28;20044;-57
2023/05/17 01:43:15;;;;;;;2.85;1.92;;;;;;;;;;5031929;28;20054;-58
2023/05/17 01:46:00;;;;;;;5.03;2.15;;;;;;;;;;5037073;28;20037;-58
2023/05/17 01:48:33;;;;;;;5.68;2.08;;;;;;;;;;5040323;28;20052;-58
2023/05/17 01:51:01;;;;;;;5.80;2.33;;;;;;;;;;5040430;28;20376;-57
2023/05/17 01:53:38;;;;;;;3.83;2.00;;;;;;;;;;5037552;28;20036;-57
2023/05/17 01:56:11;;;;;;;2.70;2.10;;;;;;;;;;5041424;28;20047;-57
2023/05/17 01:58:45;;;;;;;5.43;2.25;;;;;;;;;;5030953;28;20480;-57
2023/05/17 02:01:14;;;;;;;6.35;2.05;;;;;;;;;;5039770;28;20427;-57
2023/05/17 02:03:42;;;;;;;3.30;2.30;;;;;;;;;;5040822;28;20029;-58
2023/05/17 02:06:08;;;;;;;4.13;2.30;;;;;;;;;;5041342;28;20052;-58
2023/05/17 02:08:34;;;;;;;6.18;2.10;;;;;;;;;;5035663;28;20033;-57
2023/05/17 02:11:00;;;;;;;3.60;2.38;;;;;;;;;;5042413;28;20049;-57
2023/05/17 02:13:29;;;;;;;3.78;2.35;;;;;;;;;;5039901;28;20399;-58
2023/05/17 02:16:02;;;;;;;2.60;2.10;;;;;;;;;;5038391;28;20053;-57
2023/05/17 02:18:29;;;;;;;2.47;1.70;;;;;;;;;;5038331;28;20048;-57
2023/05/17 02:20:55;;;;;;;6.53;2.10;;;;;;;;;;5036575;28;20805;-57
2023/05/17 02:23:23;;;;;;;5.22;2.10;;;;;;;;;;5042336;28;20411;-56
2023/05/17 02:25:52;;;;;;;5.60;2.38;;;;;;;;;;5039942;28;20032;-58
2023/05/17 02:28:18;;;;;;;2.85;1.95;;;;;;;;;;5031730;28;20045;-57
2023/05/17 02:30:44;;;;;;;3.67;2.08;;;;;;;;;;5031987;28;20045;-56
2023/05/17 02:33:12;;;;;;;2.92;2.20;;;;;;;;;;5037346;28;20048;-59
2023/05/17 02:35:38;;;;;;;3.45;3.15;;;;;;;;;;5042922;28;20414;-57
2023/05/17 02:38:05;;;;;;;4.47;3.20;;;;;;;;;;5041212;28;20388;-58
2023/05/17 02:40:31;;;;;;;3.53;2.90;;;;;;;;;;5037897;28;20040;-58
2023/05/17 02:42:57;;;;;;;4.50;2.70;;;;;;;;;;5045541;28;20040;-59
2023/05/17 02:45:23;;;;;;;4.47;2.10;;;;;;;;;;5042213;28;20044;-58
2023/05/17 02:47:49;;;;;;;3.38;2.05;;;;;;;;;;5041411;28;20060;-58
2023/05/17 02:50:16;;;;;;;4.63;2.22;;;;;;;;;;5040760;28;20040;-57
2023/05/17 02:52:42;;;;;;;8.77;3.58;;;;;;;;;;5031788;28;20036;-57
2023/05/17 02:55:08;;;;;;;21.65;6.38;;;;;;;;;;5037072;28;20621;-58
2023/05/17 02:57:34;;;;;;;18.13;5.05;;;;;;;;;;5035467;28;20025;-58
2023/05/17 03:00:01;;;;;;;12.13;3.97;;;;;;;;;;5043190;28;20053;-57
2023/05/17 03:02:28;;;;;;;6.43;2.90;;;;;;;;;;5016811;28;20040;-58
2023/05/17 03:04:54;;;;;;;6.28;2.60;;;;;;;;;;5038368;28;20034;-57
2023/05/17 03:07:21;;;;;;;4.47;2.33;;;;;;;;;;5031980;28;20407;-56
2023/05/17 03:09:47;;;;;;;5.72;2.38;;;;;;;;;;5032770;28;20037;-58
2023/05/17 03:12:13;;;;;;;6.72;2.17;;;;;;;;;;5041107;28;20418;-57
2023/05/17 03:14:40;;;;;;;3.40;2.53;;;;;;;;;;5040639;28;20039;-57
2023/05/17 03:17:06;;;;;;;5.45;2.28;;;;;;;;;;5040401;28;20032;-58
2023/05/17 03:19:34;;;;;;;4.47;2.40;;;;;;;;;;5034501;28;20053;-58
2023/05/17 03:22:00;;;;;;;3.13;2.10;;;;;;;;;;5019894;28;20397;-58
2023/05/17 03:24:26;;;;;;;2.67;2.25;;;;;;;;;;5040196;28;20072;-58
2023/05/17 03:26:52;;;;;;;4.25;2.30;;;;;;;;;;5041108;28;20044;-57
2023/05/17 03:29:19;;;;;;;4.82;2.40;;;;;;;;;;5040468;28;20395;-57
2023/05/17 03:31:45;;;;;;;4.38;2.20;;;;;;;;;;5040914;28;20033;-57
2023/05/17 03:34:12;;;;;;;7.57;2.47;;;;;;;;;;5038139;28;20052;-58
2023/05/17 03:36:39;;;;;;;3.25;2.22;;;;;;;;;;5040641;28;20021;-57
2023/05/17 03:39:06;;;;;;;3.15;2.10;;;;;;;;;;5023116;28;20532;-57
2023/05/17 03:41:32;;;;;;;3.97;2.50;;;;;;;;;;5040750;28;20033;-58
2023/05/17 03:44:00;;;;;;;3.33;2.10;;;;;;;;;;5042258;28;20531;-58
2023/05/17 03:46:26;;;;;;;6.95;2.20;;;;;;;;;;5043731;28;20040;-58
2023/05/17 03:48:52;;;;;;;3.95;2.28;;;;;;;;;;5040272;28;20041;-58
2023/05/17 03:51:18;;;;;;;3.15;2.65;;;;;;;;;;5020149;28;20034;-58
2023/05/17 03:53:44;;;;;;;3.47;2.13;;;;;;;;;;5035270;28;20045;-58
2023/05/17 03:56:11;;;;;;;4.13;2.85;;;;;;;;;;5037369;28;20034;-57
2023/05/17 03:58:38;;;;;;;2.83;2.00;;;;;;;;;;5032105;28;20045;-59
2023/05/17 04:01:05;;;;;;;5.03;2.60;;;;;;;;;;5045319;28;20056;-58
2023/05/17 04:03:32;;;;;;;4.20;2.25;;;;;;;;;;5038369;28;20043;-56
2023/05/17 04:06:05;;;;;;;4.45;2.50;;;;;;;;;;5034065;28;20713;-57
2023/05/17 04:08:33;;;;;;;4.63;2.33;;;;;;;;;;5042261;28;20048;-57
2023/05/17 04:11:08;;;;;;;4.07;2.20;;;;;;;;;;5034650;28;20044;-56
2023/05/17 04:13:38;;;;;;;4.32;2.38;;;;;;;;;;5041247;28;20801;-57
2023/05/17 04:16:08;;;;;;;6.93;2.40;;;;;;;;;;5034393;28;20072;-56
2023/05/17 04:18:37;;;;;;;3.15;2.10;;;;;;;;;;5037026;28;20041;-57
2023/05/17 04:21:04;;;;;;;6.90;2.40;;;;;;;;;;5038898;28;20033;-57
2023/05/17 04:23:31;;;;;;;4.55;2.40;;;;;;;;;;5033943;28;20048;-57
2023/05/17 04:25:58;;;;;;;3.38;2.70;;;;;;;;;;5036202;28;20042;-56
2023/05/17 04:28:26;;;;;;;5.25;2.53;;;;;;;;;;5034937;28;20045;-57
2023/05/17 04:30:53;;;;;;;6.13;2.50;;;;;;;;;;5030217;28;20044;-57
2023/05/17 04:33:19;;;;;;;5.40;2.55;;;;;;;;;;5032658;28;20634;-58
2023/05/17 04:35:45;;;;;;;7.47;2.40;;;;;;;;;;5036403;28;20052;-57
2023/05/17 04:38:12;;;;;;;6.88;2.75;;;;;;;;;;5038271;28;20037;-56
2023/05/17 04:40:39;;;;;;;4.70;2.70;;;;;;;;;;5033623;28;20413;-57
2023/05/17 04:43:05;;;;;;;5.78;3.00;;;;;;;;;;5032473;28;20046;-57
2023/05/17 04:45:32;;;;;;;4.80;2.55;;;;;;;;;;5037213;28;20045;-58
2023/05/17 04:48:00;;;;;;;3.03;2.50;;;;;;;;;;5041122;28;20033;-57
2023/05/17 04:50:26;;;;;;;5.25;2.70;;;;;;;;;;5037937;28;20053;-56
2023/05/17 04:52:52;;;;;;;2.70;2.20;;;;;;;;;;5038324;28;20037;-57
2023/05/17 04:55:19;;;;;;;3.50;2.70;;;;;;;;;;5036637;28;20037;-57
2023/05/17 04:57:45;;;;;;;4.30;2.25;;;;;;;;;;5033735;28;20053;-57
2023/05/17 05:00:14;;;;;;;7.18;2.50;;;;;;;;;;5042343;28;20029;-58
2023/05/17 05:02:43;;;;;;;5.00;2.85;;;;;;;;;;5028613;28;20037;-58
2023/05/17 05:05:10;;;;;;;3.58;2.55;;;;;;;;;;5038953;28;20047;-57
2023/05/17 05:07:38;;;;;;;3.03;2.22;;;;;;;;;;5039614;28;20037;-58
2023/05/17 05:10:06;;;;;;;4.13;2.47;;;;;;;;;;5036463;28;20037;-57
2023/05/17 05:12:32;;;;;;;6.95;2.85;;;;;;;;;;5038916;28;20628;-58
2023/05/17 05:14:58;;;;;;;8.00;3.53;;;;;;;;;;5047860;28;20651;-56
2023/05/17 05:17:25;;;;;;;12.93;5.95;;;;;;;;;;5035062;28;20043;-57
2023/05/17 05:19:51;;;;;;;5.95;3.40;;;;;;;;;;5035713;28;20048;-56
2023/05/17 05:22:18;;;;;;;4.57;3.30;;;;;;;;;;5027570;28;20049;-57
2023/05/17 05:24:44;;;;;;;7.22;3.47;;;;;;;;;;5038297;28;20032;-56
2023/05/17 05:27:10;;;;;;;5.20;2.95;;;;;;;;;;5033355;28;20060;-56
2023/05/17 05:29:37;;;;;;;5.28;2.90;;;;;;;;;;5042838;28;20043;-57
2023/05/17 05:32:04;;;;;;;5.53;3.53;;;;;;;;;;5040206;28;20389;-56
2023/05/17 05:34:37;;;;;;;3.88;3.13;;;;;;;;;;5040446;28;20071;-56
2023/05/17 05:37:04;;;;;;;6.57;3.38;;;;;;;;;;5038428;28;20033;-57
2023/05/17 05:39:32;;;;;;;6.25;3.50;;;;;;;;;;5035688;28;20495;-56
2023/05/17 05:41:59;;;;;;;8.35;3.90;;;;;;;;;;5033560;28;20029;-57
2023/05/17 05:44:26;;;;;;;6.65;4.03;;;;;;;;;;5036647;28;20056;-58
2023/05/17 05:46:54;;;;;;;10.02;4.40;;;;;;;;;;5042487;28;20033;-56
2023/05/17 05:49:21;;;;;;;10.18;4.30;;;;;;;;;;5042857;28;20041;-57
2023/05/17 05:51:48;;;;;;;9.75;5.32;;;;;;;;;;5036758;28;20030;-56
2023/05/17 05:54:16;;;;;;;10.73;5.50;;;;;;;;;;5029769;28;20041;-57
2023/05/17 05:56:42;;;;;;;9.82;5.05;;;;;;;;;;5024157;28;20415;-56
2023/05/17 05:59:12;;;;;;;8.23;4.97;;;;;;;;;;5041514;28;20049;-56
2023/05/17 06:01:38;;;;;;;7.35;4.32;;;;;;;;;;5023719;28;20487;-57
2023/05/17 06:04:04;;;;;;;15.18;4.50;;;;;;;;;;5031732;28;20525;-57
2023/05/17 06:06:30;;;;;;;6.80;4.68;;;;;;;;;;5038450;28;20503;-58
2023/05/17 06:08:58;;;;;;;8.90;5.03;;;;;;;;;;5043452;28;20068;-57
2023/05/17 06:11:25;;;;;;;10.55;4.78;;;;;;;;;;5042273;28;20542;-57
2023/05/17 06:13:51;;;;;;;7.82;4.32;;;;;;;;;;5046453;28;20032;-57
2023/05/17 06:16:17;;;;;;;11.02;4.53;;;;;;;;;;5044066;28;20033;-58
2023/05/17 06:18:44;;;;;;;7.43;4.18;;;;;;;;;;5045566;28;20419;-58
2023/05/17 06:21:12;;;;;;;10.13;4.55;;;;;;;;;;5039837;28;20079;-57
2023/05/17 06:23:38;;;;;;;7.45;4.22;;;;;;;;;;5046083;28;20033;-58
2023/05/17 06:26:09;;;;;;;7.15;4.18;;;;;;;;;;5044450;28;20435;-58
2023/05/17 06:28:38;;;;;;;9.90;4.28;;;;;;;;;;5043005;28;20419;-58
2023/05/17 06:31:06;;;;;;;5.97;3.88;;;;;;;;;;5045314;28;20553;-57
2023/05/17 06:33:33;;;;;;;7.70;3.88;;;;;;;;;;5042983;28;20041;-57
2023/05/17 06:35:59;;;;;;;9.18;3.70;;;;;;;;;;5038639;28;20040;-56
2023/05/17 06:38:26;;;;;;;7.47;3.70;;;;;;;;;;5042619;28;20040;-58
2023/05/17 06:40:53;;;;;;;6.70;4.07;;;;;;;;;;5042709;28;20117;-56
2023/05/17 06:43:21;;;;;;;9.43;3.97;;;;;;;;;;5042478;28;20033;-58
2023/05/17 06:45:47;;;;;;;5.32;3.20;;;;;;;;;;5037190;28;20040;-58
2023/05/17 06:48:14;;;;;;;5.10;3.53;;;;;;;;;;5038150;28;20488;-57
2023/05/17 06:50:41;;;;;;;8.00;3.20;;;;;;;;;;5044836;28;20034;-56
2023/05/17 06:53:08;;;;;;;9.63;3.58;;;;;;;;;;5049156;28;20505;-57
2023/05/17 06:55:35;;;;;;;6.80;3.47;;;;;;;;;;5042537;28;20049;-57
2023/05/17 06:58:02;;;;;;;11.57;3.70;;;;;;;;;;5048685;28;20906;-57
2023/05/17 07:00:29;;;;;;;10.75;3.67;;;;;;;;;;5037709;28;20502;-57
2023/05/17 07:02:55;;;;;;;8.45;3.38;;;;;;;;;;5040894;28;20045;-57
2023/05/17 07:05:26;;;;;;;8.30;3.30;;;;;;;;;;5039394;28;20080;-57
2023/05/17 07:07:53;;;;;;;7.53;2.95;;;;;;;;;;5035008;28;20048;-57
2023/05/17 07:10:20;;;;;;;7.05;3.30;;;;;;;;;;5040241;28;20041;-57
2023/05/17 07:12:46;;;;;;;9.43;3.40;;;;;;;;;;5050279;28;20033;-56
2023/05/17 07:15:13;;;;;;;13.80;3.70;;;;;;;;;;5036215;28;20049;-56
2023/05/17 07:17:41;;;;;;;10.27;3.80;;;;;;;;;;5040615;28;20028;-56
2023/05/17 07:20:08;;;;;;;8.45;4.13;;;;;;;;;;5042357;28;20056;-52
2023/05/17 07:22:36;;;;;;;5.25;3.47;;;;;;;;;;5037456;28;20233;-57
2023/05/17 07:25:04;;;;;;;10.50;3.88;;;;;;;;;;5036655;28;20274;-58
2023/05/17 07:27:30;;;;;;;9.07;3.78;;;;;;;;;;5032721;28;20063;-58
2023/05/17 07:29:57;;;;;;;8.27;5.03;;;;;;;;;;5036943;28;20029;-57
2023/05/17 07:32:24;;;;;;;9.32;4.00;;;;;;;;;;5036080;28;20076;-57
2023/05/17 07:34:51;;;;;;;6.63;3.50;;;;;;;;;;5046105;28;20040;-58
2023/05/17 07:37:17;;;;;;;8.60;4.15;;;;;;;;;;5036688;28;20041;-57
2023/05/17 07:39:44;;;;;;;9.05;3.30;;;;;;;;;;5037823;28;20600;-58
2023/05/17 07:42:11;;;;;;;8.00;3.92;;;;;;;;;;5036875;28;20052;-57
2023/05/17 07:44:37;;;;;;;9.80;3.83;;;;;;;;;;5035914;28;20049;-58
2023/05/17 07:47:04;;;;;;;8.13;3.53;;;;;;;;;;5039114;28;20769;-57
2023/05/17 07:49:31;;;;;;;5.70;3.03;;;;;;;;;;5039202;28;20044;-57
2023/05/17 07:51:57;;;;;;;9.15;3.28;;;;;;;;;;5034297;28;22001;-57
2023/05/17 07:54:28;;;;;;;6.35;3.63;;;;;;;;;;5040624;28;20052;-57
2023/05/17 07:56:55;;;;;;;10.30;3.58;;;;;;;;;;5044399;28;20040;-60
2023/05/17 07:59:23;;;;;;;12.55;3.67;;;;;;;;;;5040794;28;20051;-58
2023/05/17 08:01:50;;;;;;;8.65;3.80;;;;;;;;;;5034673;28;20040;-58
2023/05/17 08:04:18;;;;;;;6.45;3.38;;;;;;;;;;5036125;28;20398;-58
2023/05/17 08:06:47;;;;;;;6.68;3.30;;;;;;;;;;5038980;28;20045;-59
2023/05/17 08:09:17;;;;;;;5.32;3.17;;;;;;;;;;5037949;28;20041;-57
2023/05/17 08:11:44;;;;;;;9.93;3.40;;;;;;;;;;5030983;28;20044;-57
2023/05/17 08:14:13;;;;;;;5.60;3.10;;;;;;;;;;5036304;28;20046;-58
2023/05/17 08:16:45;;;;;;;9.48;3.30;;;;;;;;;;5038405;28;20045;-57
2023/05/17 08:19:13;;;;;;;7.30;3.10;;;;;;;;;;5033317;28;20033;-57
2023/05/17 08:21:41;;;;;;;6.32;3.38;;;;;;;;;;5038280;28;20232;-58
2023/05/17 08:24:08;;;;;;;10.93;3.65;;;;;;;;;;5030714;28;20037;-58
2023/05/17 08:26:35;;;;;;;9.15;3.00;;;;;;;;;;5030934;28;20148;-58
2023/05/17 08:29:03;;;;;;;8.98;3.50;;;;;;;;;;5036550;28;20519;-58
2023/05/17 08:31:31;;;;;;;7.50;3.35;;;;;;;;;;5041741;28;20033;-58
2023/05/17 08:33:58;;;;;;;6.82;3.00;;;;;;;;;;5034870;28;20084;-58
2023/05/17 08:36:25;;;;;;;7.38;3.60;;;;;;;;;;5028995;28;20057;-58
2023/05/17 08:38:53;;;;;;;9.38;3.45;;;;;;;;;;5036564;28;20036;-57
2023/05/17 08:41:21;;;;;;;6.93;2.97;;;;;;;;;;5030931;28;20033;-57
2023/05/17 08:43:49;;;;;;;9.68;3.50;;;;;;;;;;5029777;28;20029;-58
2023/05/17 08:46:21;;;;;;;10.05;3.67;;;;;;;;;;5032815;28;20048;-58
2023/05/17 08:48:50;;;;;;;16.60;7.65;;;;;;;;;;5036619;28;20048;-58
2023/05/17 08:51:18;;;;;;;13.05;6.32;;;;;;;;;;5031146;28;20044;-57
2023/05/17 08:53:45;;;;;;;11.50;5.10;;;;;;;;;;5038040;28;20041;-58
2023/05/17 08:56:14;;;;;;;9.00;3.78;;;;;;;;;;5030048;28;20045;-57
2023/05/17 08:58:42;;;;;;;11.73;4.40;;;;;;;;;;5036931;28;20100;-56
2023/05/17 09:01:09;;;;;;;7.03;3.33;;;;;;;;;;5033432;28;20299;-57
2023/05/17 09:03:39;;;;;;;7.57;4.25;;;;;;;;;;5029741;28;20052;-58
2023/05/17 09:06:05;;;;;;;7.10;3.70;;;;;;;;;;5033574;28;20029;-58
2023/05/17 09:08:31;;;;;;;7.75;3.45;;;;;;;;;;5032096;28;20660;-58
2023/05/17 09:11:01;;;;;;;7.53;3.22;;;;;;;;;;5036755;28;20037;-57
2023/05/17 09:13:27;;;;;;;;;;;;;;;;;;5036651;28;20046;-58
2023/05/17 09:15:53;;;;;;;6.50;3.20;;;;;;;;;;5038165;28;19920;-59
2023/05/17 09:18:28;;;;;;;8.48;3.08;;;;;;;;;;5031966;28;20494;-58
2023/05/17 09:20:55;;;;;;;9.38;3.08;;;;;;;;;;5042203;28;20041;-58
2023/05/17 09:23:21;;;;;;;9.50;3.25;;;;;;;;;;5027680;28;20406;-58
2023/05/17 09:25:48;;;;;;;8.15;3.53;;;;;;;;;;5031935;28;20060;-57
2023/05/17 09:28:17;;;;;;;7.40;3.17;;;;;;;;;;5034890;28;20047;-58
2023/05/17 09:30:43;;;;;;;9.70;3.53;;;;;;;;;;5031858;28;20041;-57
2023/05/17 09:33:10;;;;;;;7.82;3.33;;;;;;;;;;5039481;28;20064;-58
2023/05/17 09:35:37;;;;;;;10.32;3.50;;;;;;;;;;5033619;28;20670;-58
2023/05/17 09:38:08;;;;;;;7.47;3.92;;;;;;;;;;5038663;28;20423;-58
2023/05/17 09:40:42;;;;;;;8.15;3.83;;;;;;;;;;5038503;28;20052;-58
2023/05/17 09:43:10;;;;;;;7.18;3.40;;;;;;;;;;5036111;28;20041;-57
2023/05/17 09:45:36;;;;;;;9.57;4.95;;;;;;;;;;5034550;28;20044;-58
2023/05/17 09:48:17;;;;;;;27.33;11.00;;;;;;;;;;5045384;28;20036;-58
2023/05/17 09:50:44;;;;;;;7.32;3.88;;;;;;;;;;5051235;28;20494;-57
2023/05/17 09:53:27;;;;;;;7.68;3.72;;;;;;;;;;5051611;28;20032;-58
2023/05/17 09:55:54;;;;;;;6.57;3.28;;;;;;;;;;5038191;28;20507;-57
2023/05/17 09:58:21;;;;;;;8.27;4.22;;;;;;;;;;5038246;28;20040;-58
2023/05/17 10:00:54;;;;;;;8.77;4.03;;;;;;;;;;5039187;28;20056;-57
2023/05/17 10:03:21;;;;;;;6.95;3.33;;;;;;;;;;5041319;28;20037;-58
2023/05/17 10:05:53;;;;;;;10.82;3.72;;;;;;;;;;5038482;28;20558;-57
2023/05/17 10:08:22;;;;;;;8.57;4.05;;;;;;;;;;5037698;28;20057;-57
2023/05/17 10:10:50;;;;;;;7.03;3.53;;;;;;;;;;5035014;28;20422;-58
2023/05/17 10:13:26;;;;;;;8.45;3.90;;;;;;;;;;5037086;28;20495;-58
2023/05/17 10:15:53;;;;;;;8.02;4.35;;;;;;;;;;5043132;28;20032;-58
2023/05/17 10:18:20;;;;;;;9.40;4.80;;;;;;;;;;5029702;28;20041;-57
2023/05/17 10:20:47;;;;;;;7.55;3.97;;;;;;;;;;5035669;28;20043;-58
2023/05/17 10:23:14;;;;;;;9.90;4.30;;;;;;;;;;5030556;28;20025;-57
2023/05/17 10:25:41;;;;;;;8.20;3.83;;;;;;;;;;5029134;28;20033;-57
2023/05/17 10:28:09;;;;;;;8.98;3.70;;;;;;;;;;5032914;28;20044;-57
2023/05/17 10:30:35;;;;;;;7.03;3.60;;;;;;;;;;5041812;28;20498;-57
2023/05/17 10:33:03;;;;;;;6.65;3.63;;;;;;;;;;5043454;28;20040;-57
2023/05/17 10:35:31;;;;;;;5.80;3.28;;;;;;;;;;5040025;28;20056;-59
2023/05/17 10:37:57;;;;;;;5.85;3.40;;;;;;;;;;5036225;28;20053;-59
2023/05/17 10:40:24;;;;;;;5.93;3.28;;;;;;;;;;5035041;28;20064;-57
2023/05/17 10:42:53;;;;;;;5.57;3.33;;;;;;;;;;5037316;28;20045;-57
2023/05/17 10:45:22;;;;;;;7.30;3.40;;;;;;;;;;5020477;28;20056;-58
2023/05/17 10:47:51;;;;;;;8.77;3.45;;;;;;;;;;5037168;28;20045;-58
2023/05/17 10:50:22;;;;;;;9.18;3.72;;;;;;;;;;5040189;28;20053;-58
2023/05/17 10:52:50;;;;;;;5.30;3.40;;;;;;;;;;5038529;28;20569;-59
2023/05/17 10:55:20;;;;;;;6.85;3.40;;;;;;;;;;5029323;28;20041;-58
2023/05/17 10:58:10;;;;;;;8.13;3.30;;;;;;;;;;5034666;28;20033;-59
2023/05/17 11:00:40;;;;;;;;;;;;;;;;;;5038262;28;20056;-60
2023/05/17 11:03:13;;;;;;;6.35;3.00;;;;;;;;;;5039662;28;19917;-59
2023/05/17 11:05:42;;;;;;;6.43;3.17;;;;;;;;;;5038654;28;20037;-59
2023/05/17 11:08:16;;;;;;;4.90;3.15;;;;;;;;;;5042080;28;20402;-58
2023/05/17 11:11:12;;;;;;;8.63;3.20;;;;;;;;;;5037001;28;20052;-59
2023/05/17 11:13:52;;;;;;;8.55;3.45;;;;;;;;;;5032314;28;20450;-58
2023/05/17 11:16:32;;;;;;;7.03;3.38;;;;;;;;;;5037315;28;20048;-59
2023/05/17 11:19:06;;;;;;;5.40;3.20;;;;;;;;;;5036141;28;20509;-58
2023/05/17 11:21:32;;;;;;;7.53;3.50;;;;;;;;;;5032104;28;20113;-58
2023/05/17 11:24:02;;;;;;;12.00;3.13;;;;;;;;;;5038619;28;20045;-58
2023/05/17 11:26:39;;;;;;;11.32;3.55;;;;;;;;;;5036647;28;20037;-58
2023/05/17 11:29:09;;;;;;;4.82;2.97;;;;;;;;;;5039769;28;20054;-58
2023/05/17 11:31:41;;;;;;;10.25;3.45;;;;;;;;;;5037090;28;20052;-58
2023/05/17 11:34:07;;;;;;;6.10;3.28;;;;;;;;;;5041166;28;20037;-58
2023/05/17 11:36:52;;;;;;;6.32;3.10;;;;;;;;;;5041696;28;20043;-58
2023/05/17 11:39:20;;;;;;;5.35;2.70;;;;;;;;;;5037807;28;20033;-58
2023/05/17 11:41:49;;;;;;;9.70;3.40;;;;;;;;;;5039994;28;20057;-58
2023/05/17 11:44:33;;;;;;;6.93;3.33;;;;;;;;;;5041611;28;20112;-58
2023/05/17 11:47:05;;;;;;;5.25;2.83;;;;;;;;;;5041052;28;20041;-58
2023/05/17 11:49:37;;;;;;;8.23;3.30;;;;;;;;;;5046961;28;20052;-59
2023/05/17 11:52:04;;;;;;;9.65;3.13;;;;;;;;;;5037850;28;20113;-57
2023/05/17 11:54:31;;;;;;;5.63;3.03;;;;;;;;;;5030632;28;20044;-59
2023/05/17 11:56:58;;;;;;;7.18;2.90;;;;;;;;;;5030670;28;20037;-58
2023/05/17 11:59:25;;;;;;;6.18;3.10;;;;;;;;;;5028548;28;20041;-59
2023/05/17 12:01:51;;;;;;;7.50;3.25;;;;;;;;;;5032349;28;20054;-57
2023/05/17 12:04:24;;;;;;;8.15;3.67;;;;;;;;;;5040791;28;20029;-58
2023/05/17 12:06:52;;;;;;;4.88;3.25;;;;;;;;;;5039980;28;20047;-58
2023/05/17 12:09:18;;;;;;;8.02;3.90;;;;;;;;;;5029078;28;20522;-58
2023/05/17 12:11:46;;;;;;;10.13;4.00;;;;;;;;;;5031313;28;20049;-57
2023/05/17 12:14:16;;;;;;;7.43;3.55;;;;;;;;;;5029448;28;20038;-58
2023/05/17 12:16:44;;;;;;;9.15;3.75;;;;;;;;;;5035416;28;20423;-58
2023/05/17 12:19:20;;;;;;;7.15;3.58;;;;;;;;;;5029659;28;20048;-58
2023/05/17 12:21:47;;;;;;;5.55;3.55;;;;;;;;;;5037209;28;20057;-58
2023/05/17 12:24:14;;;;;;;5.93;3.60;;;;;;;;;;5032418;28;20414;-59
2023/05/17 12:26:45;;;;;;;6.93;3.60;;;;;;;;;;5032651;28;20076;-58
2023/05/17 12:29:14;;;;;;;6.57;3.65;;;;;;;;;;5034850;28;20048;-59
2023/05/17 12:31:44;;;;;;;11.10;3.97;;;;;;;;;;5038590;28;20040;-58
2023/05/17 12:34:15;;;;;;;8.23;3.70;;;;;;;;;;5037319;28;20029;-58
2023/05/17 12:36:42;;;;;;;7.85;3.63;;;;;;;;;;5035954;28;20041;-58
2023/05/17 12:39:10;;;;;;;11.40;4.13;;;;;;;;;;5039824;28;20083;-58
2023/05/17 12:41:38;;;;;;;8.13;4.10;;;;;;;;;;5037680;28;20052;-59
2023/05/17 12:44:07;;;;;;;8.20;4.00;;;;;;;;;;5041760;28;20046;-58
2023/05/17 12:46:34;;;;;;;8.18;4.03;;;;;;;;;;5035548;28;20036;-58
2023/05/17 12:49:06;;;;;;;6.53;3.55;;;;;;;;;;5017932;28;20052;-58
2023/05/17 12:51:45;;;;;;;11.07;3.88;;;;;;;;;;5031951;28;20399;-58
2023/05/17 12:54:33;;;;;;;8.45;3.75;;;;;;;;;;5032795;28;20044;-59
2023/05/17 12:57:09;;;;;;;9.35;3.97;;;;;;;;;;5036527;28;20041;-57
2023/05/17 12:59:45;;;;;;;7.07;3.90;;;;;;;;;;5030836;28;20407;-60
2023/05/17 13:02:11;;;;;;;10.25;3.70;;;;;;;;;;5037192;28;20045;-58
2023/05/17 13:04:38;;;;;;;8.48;4.10;;;;;;;;;;5033097;28;20053;-58
2023/05/17 13:07:05;;;;;;;10.55;3.95;;;;;;;;;;5034459;28;20052;-59
2023/05/17 13:09:33;;;;;;;11.07;4.43;;;;;;;;;;5032446;28;20036;-59
2023/05/17 13:12:01;;;;;;;8.55;3.75;;;;;;;;;;5036269;28;20037;-59
2023/05/17 13:14:39;;;;;;;8.73;3.67;;;;;;;;;;5036426;28;20060;-58
2023/05/17 13:17:09;;;;;;;9.67;4.47;;;;;;;;;;5038512;28;20033;-59
2023/05/17 13:19:37;;;;;;;11.88;5.38;;;;;;;;;;5038270;28;20040;-58
2023/05/17 13:22:04;;;;;;;8.70;4.45;;;;;;;;;;5038667;28;20045;-59
2023/05/17 13:24:36;;;;;;;7.88;3.92;;;;;;;;;;5034636;28;20041;-58
2023/05/17 13:27:05;;;;;;;6.25;3.20;;;;;;;;;;5038651;28;20064;-60
2023/05/17 13:29:35;;;;;;;7.32;3.65;;;;;;;;;;5029584;28;20045;-59
2023/05/17 13:32:02;;;;;;;6.30;3.58;;;;;;;;;;5038557;28;20048;-60
2023/05/17 13:34:28;;;;;;;8.75;4.05;;;;;;;;;;5035661;28;20040;-59
2023/05/17 13:36:56;;;;;;;7.22;3.67;;;;;;;;;;5040750;28;20372;-59
2023/05/17 13:39:22;;;;;;;12.88;4.85;;;;;;;;;;5033453;28;20037;-59
2023/05/17 13:41:49;;;;;;;9.35;4.05;;;;;;;;;;5030811;28;20041;-59
2023/05/17 13:44:15;;;;;;;7.10;3.90;;;;;;;;;;5029269;28;20056;-59
2023/05/17 13:46:41;;;;;;;7.10;3.90;;;;;;;;;;5035387;28;20041;-58
2023/05/17 13:49:08;;;;;;;9.02;4.40;;;;;;;;;;5039878;28;20032;-59
2023/05/17 13:51:36;;;;;;;9.18;3.38;;;;;;;;;;5043459;28;20049;-60
2023/05/17 13:54:04;;;;;;;11.82;4.47;;;;;;;;;;5043145;28;20025;-59
2023/05/17 13:56:30;;;;;;;7.70;3.83;;;;;;;;;;5033534;28;20060;-59
2023/05/17 13:58:57;;;;;;;14.10;6.05;;;;;;;;;;5032936;28;20040;-58
2023/05/17 14:01:23;;;;;;;10.50;4.20;;;;;;;;;;5033017;28;20415;-59
2023/05/17 14:03:50;;;;;;;8.13;3.60;;;;;;;;;;5037929;28;20577;-58
2023/05/17 14:06:16;;;;;;;5.57;3.35;;;;;;;;;;5045061;28;20060;-58
2023/05/17 14:08:44;;;;;;;7.65;3.53;;;;;;;;;;5039086;28;20042;-58
2023/05/17 14:11:11;;;;;;;7.47;3.72;;;;;;;;;;5029301;28;20056;-58
2023/05/17 14:13:37;;;;;;;8.25;4.15;;;;;;;;;;5031652;28;20464;-58
2023/05/17 14:16:05;;;;;;;7.07;3.75;;;;;;;;;;5036042;28;20100;-59
2023/05/17 14:18:31;;;;;;;8.35;3.78;;;;;;;;;;5030499;28;20517;-58
2023/05/17 14:20:59;;;;;;;7.78;3.47;;;;;;;;;;5029119;28;20521;-61
2023/05/17 14:23:26;;;;;;;9.80;3.33;;;;;;;;;;5038002;28;20498;-58
2023/05/17 14:25:52;;;;;;;12.70;4.05;;;;;;;;;;5034678;28;20037;-59
2023/05/17 14:28:18;;;;;;;7.65;3.88;;;;;;;;;;5036814;28;20053;-59
2023/05/17 14:30:45;;;;;;;10.68;4.03;;;;;;;;;;5037717;28;20049;-59
2023/05/17 14:33:11;;;;;;;9.93;3.70;;;;;;;;;;5039092;28;20045;-59
2023/05/17 14:35:37;;;;;;;6.60;3.60;;;;;;;;;;5046212;28;20464;-59
2023/05/17 14:38:04;;;;;;;6.82;3.40;;;;;;;;;;5035739;28;20041;-59
2023/05/17 14:40:30;;;;;;;8.68;3.83;;;;;;;;;;5039737;28;20050;-60
2023/05/17 14:42:56;;;;;;;10.02;4.32;;;;;;;;;;5033483;28;20503;-59
2023/05/17 14:45:23;;;;;;;9.45;4.13;;;;;;;;;;5039241;28;20045;-59
2023/05/17 14:47:49;;;;;;;9.82;3.92;;;;;;;;;;5046162;28;20060;-59
2023/05/17 14:50:15;;;;;;;7.97;3.30;;;;;;;;;;5041965;28;20048;-58